Terminal Aerodrome Forecast
Issued by NWS

Home | Current Version | Previous Version | Text Only | Print | Product List | Glossary On
Versions: 1 2 3 4 5 6 7 8 9 10 11 12 13 14 15 16 17 18 19 20 21
870
FTUS46 KSTO 190155 AAA
TAFSAC
TAF AMD
KSAC 190155Z 1902/1924 15022G33KT 6SM -RA SCT020 OVC050
      TEMPO 1902/1906 3SM -RA BR BKN020
     FM191000 15012KT 4SM -SHRA OVC015
     FM192000 18008KT P6SM VCSH BKN030=

USA.gov is the U.S. government's official web portal to all federal, state and local government web resources and services.